Terminal Aerodrome Forecast
Issued by NWS

Home | Current Version | Previous Version | Text Only | Print | Product List | Glossary On
Versions: 1 2 3 4 5 6 7 8 9 10 11 12
000
FTUS45 KABQ 292300
TAFFMN
TAF
KFMN 292325Z 3000/3024 12011KT P6SM SCT070 OVC090
     FM300100 10012G20KT P6SM VCSH SCT040 OVC080
      TEMPO 3006/3010 3SM -RASN BR OVC013
     FM301000 08013KT 3SM -RA BR OVC008
      TEMPO 3011/3015 1/4SM SN FG OVC100
     FM301800 11013KT 1 1/2SM -RA BR OVC008=

USA.gov is the U.S. government's official web portal to all federal, state and local government web resources and services.